Terminal Aerodrome Forecast
Issued by NWS Grand Forks, ND

Home | Current Version | Previous Version | Graphics & Text | Print | Product List | Glossary Off
Versions: 1 2 3 4 5 6 7 8 9 10 11 12 13

064
FTUS43 KFGF 300311 AAA
TAFFAR
TAF AMD
KFAR 300311Z 3003/3024 18005KT P6SM VCSH BKN100
     FM300600 18005KT P6SM BKN100
     FM301600 16007KT P6SM SCT150=

USA.gov is the U.S. government's official web portal to all federal, state and local government web resources and services.